sensor_id;sensor_type;location;lat;lon;timestamp;P1;durP1;ratioP1;P2;durP2;ratioP2
33654;SDS011;19997;51.274;22.506;2023-03-23T00:01:29;21.70;;;9.95;;
33654;SDS011;19997;51.274;22.506;2023-03-23T00:03:57;23.85;;;10.65;;
33654;SDS011;19997;51.274;22.506;2023-03-23T00:06:26;24.98;;;10.88;;
33654;SDS011;19997;51.274;22.506;2023-03-23T00:08:58;23.08;;;11.60;;
33654;SDS011;19997;51.274;22.506;2023-03-23T00:11:30;21.08;;;10.25;;
33654;SDS011;19997;51.274;22.506;2023-03-23T00:14:00;25.13;;;11.98;;
33654;SDS011;19997;51.274;22.506;2023-03-23T00:16:29;23.02;;;11.18;;
33654;SDS011;19997;51.274;22.506;2023-03-23T00:18:57;22.90;;;10.55;;
33654;SDS011;19997;51.274;22.506;2023-03-23T00:21:26;26.80;;;11.77;;
33654;SDS011;19997;51.274;22.506;2023-03-23T00:24:03;25.90;;;11.60;;
33654;SDS011;19997;51.274;22.506;2023-03-23T00:26:32;25.15;;;11.80;;
33654;SDS011;19997;51.274;22.506;2023-03-23T00:29:02;22.77;;;12.75;;
33654;SDS011;19997;51.274;22.506;2023-03-23T00:31:30;26.38;;;11.32;;
33654;SDS011;19997;51.274;22.506;2023-03-23T00:33:58;25.88;;;12.10;;
33654;SDS011;19997;51.274;22.506;2023-03-23T00:36:29;24.42;;;11.93;;
33654;SDS011;19997;51.274;22.506;2023-03-23T00:38:58;29.27;;;11.77;;
33654;SDS011;19997;51.274;22.506;2023-03-23T00:41:26;27.55;;;11.82;;
33654;SDS011;19997;51.274;22.506;2023-03-23T00:43:55;24.70;;;12.30;;
33654;SDS011;19997;51.274;22.506;2023-03-23T00:46:24;24.63;;;11.63;;
33654;SDS011;19997;51.274;22.506;2023-03-23T00:48:51;22.75;;;10.80;;
33654;SDS011;19997;51.274;22.506;2023-03-23T00:51:19;24.52;;;12.23;;
33654;SDS011;19997;51.274;22.506;2023-03-23T00:53:47;27.30;;;12.52;;
33654;SDS011;19997;51.274;22.506;2023-03-23T00:56:15;23.10;;;11.50;;
33654;SDS011;19997;51.274;22.506;2023-03-23T00:58:42;26.35;;;12.40;;
33654;SDS011;19997;51.274;22.506;2023-03-23T01:01:09;25.77;;;11.85;;
33654;SDS011;19997;51.274;22.506;2023-03-23T01:03:37;24.67;;;11.98;;
33654;SDS011;19997;51.274;22.506;2023-03-23T01:06:06;24.30;;;12.25;;
33654;SDS011;19997;51.274;22.506;2023-03-23T01:08:41;29.50;;;12.45;;
33654;SDS011;19997;51.274;22.506;2023-03-23T01:11:11;25.27;;;11.80;;
33654;SDS011;19997;51.274;22.506;2023-03-23T01:13:40;30.42;;;11.93;;
33654;SDS011;19997;51.274;22.506;2023-03-23T01:16:08;24.60;;;12.27;;
33654;SDS011;19997;51.274;22.506;2023-03-23T01:18:37;25.02;;;11.23;;
33654;SDS011;19997;51.274;22.506;2023-03-23T01:21:05;29.33;;;12.55;;
33654;SDS011;19997;51.274;22.506;2023-03-23T01:23:33;27.98;;;11.55;;
33654;SDS011;19997;51.274;22.506;2023-03-23T01:26:04;23.15;;;11.60;;
33654;SDS011;19997;51.274;22.506;2023-03-23T01:28:32;26.60;;;12.55;;
33654;SDS011;19997;51.274;22.506;2023-03-23T01:31:01;22.95;;;10.98;;
33654;SDS011;19997;51.274;22.506;2023-03-23T01:33:29;22.98;;;11.48;;
33654;SDS011;19997;51.274;22.506;2023-03-23T01:36:01;25.48;;;11.40;;
33654;SDS011;19997;51.274;22.506;2023-03-23T01:38:29;20.75;;;11.38;;
33654;SDS011;19997;51.274;22.506;2023-03-23T01:40:57;23.10;;;11.10;;
33654;SDS011;19997;51.274;22.506;2023-03-23T01:43:24;23.13;;;11.07;;
33654;SDS011;19997;51.274;22.506;2023-03-23T01:45:52;22.10;;;11.23;;
33654;SDS011;19997;51.274;22.506;2023-03-23T01:48:21;23.45;;;10.27;;
33654;SDS011;19997;51.274;22.506;2023-03-23T01:50:52;21.98;;;10.07;;
33654;SDS011;19997;51.274;22.506;2023-03-23T01:53:28;27.00;;;12.10;;
33654;SDS011;19997;51.274;22.506;2023-03-23T01:55:58;21.58;;;10.98;;
33654;SDS011;19997;51.274;22.506;2023-03-23T01:58:27;23.23;;;10.77;;
33654;SDS011;19997;51.274;22.506;2023-03-23T02:01:01;21.80;;;10.30;;
33654;SDS011;19997;51.274;22.506;2023-03-23T02:03:31;25.67;;;12.30;;
33654;SDS011;19997;51.274;22.506;2023-03-23T02:06:01;23.90;;;12.05;;
33654;SDS011;19997;51.274;22.506;2023-03-23T02:08:37;23.83;;;12.23;;
33654;SDS011;19997;51.274;22.506;2023-03-23T02:11:11;25.02;;;11.30;;
33654;SDS011;19997;51.274;22.506;2023-03-23T02:13:40;21.85;;;10.85;;
33654;SDS011;19997;51.274;22.506;2023-03-23T02:16:09;23.67;;;9.90;;
33654;SDS011;19997;51.274;22.506;2023-03-23T02:18:46;25.48;;;11.70;;
33654;SDS011;19997;51.274;22.506;2023-03-23T02:24:36;22.42;;;11.85;;
33654;SDS011;19997;51.274;22.506;2023-03-23T02:27:20;20.77;;;10.32;;
33654;SDS011;19997;51.274;22.506;2023-03-23T02:30:09;24.15;;;10.32;;
33654;SDS011;19997;51.274;22.506;2023-03-23T02:36:02;28.35;;;11.02;;
33654;SDS011;19997;51.274;22.506;2023-03-23T02:38:35;22.50;;;10.23;;
33654;SDS011;19997;51.274;22.506;2023-03-23T02:41:08;18.48;;;9.55;;
33654;SDS011;19997;51.274;22.506;2023-03-23T02:43:39;23.10;;;10.57;;
33654;SDS011;19997;51.274;22.506;2023-03-23T02:46:10;18.30;;;9.70;;
33654;SDS011;19997;51.274;22.506;2023-03-23T02:48:38;22.55;;;11.00;;
33654;SDS011;19997;51.274;22.506;2023-03-23T02:51:08;20.98;;;10.48;;
33654;SDS011;19997;51.274;22.506;2023-03-23T02:53:39;17.75;;;9.25;;
33654;SDS011;19997;51.274;22.506;2023-03-23T02:56:09;25.17;;;10.65;;
33654;SDS011;19997;51.274;22.506;2023-03-23T02:58:39;18.40;;;9.60;;
33654;SDS011;19997;51.274;22.506;2023-03-23T03:01:13;21.30;;;10.52;;
33654;SDS011;19997;51.274;22.506;2023-03-23T03:03:43;19.70;;;9.93;;
33654;SDS011;19997;51.274;22.506;2023-03-23T03:06:14;21.20;;;9.63;;
33654;SDS011;19997;51.274;22.506;2023-03-23T03:08:52;19.52;;;10.05;;
33654;SDS011;19997;51.274;22.506;2023-03-23T03:11:28;21.05;;;9.52;;
33654;SDS011;19997;51.274;22.506;2023-03-23T03:16:31;23.17;;;9.70;;
33654;SDS011;19997;51.274;22.506;2023-03-23T03:19:03;19.48;;;10.00;;
33654;SDS011;19997;51.274;22.506;2023-03-23T03:21:37;21.55;;;9.75;;
33654;SDS011;19997;51.274;22.506;2023-03-23T03:24:08;23.63;;;9.88;;
33654;SDS011;19997;51.274;22.506;2023-03-23T03:26:39;18.30;;;10.18;;
33654;SDS011;19997;51.274;22.506;2023-03-23T03:29:36;20.17;;;9.40;;
33654;SDS011;19997;51.274;22.506;2023-03-23T03:32:08;19.40;;;9.15;;
33654;SDS011;19997;51.274;22.506;2023-03-23T03:34:40;20.65;;;9.90;;
33654;SDS011;19997;51.274;22.506;2023-03-23T03:37:09;25.13;;;10.63;;
33654;SDS011;19997;51.274;22.506;2023-03-23T03:39:38;19.52;;;9.98;;
33654;SDS011;19997;51.274;22.506;2023-03-23T03:42:05;19.60;;;9.15;;
33654;SDS011;19997;51.274;22.506;2023-03-23T03:44:33;17.25;;;8.73;;
33654;SDS011;19997;51.274;22.506;2023-03-23T03:47:01;22.85;;;10.18;;
33654;SDS011;19997;51.274;22.506;2023-03-23T03:49:28;19.38;;;9.48;;
33654;SDS011;19997;51.274;22.506;2023-03-23T03:51:56;17.70;;;8.73;;
33654;SDS011;19997;51.274;22.506;2023-03-23T03:54:33;21.33;;;8.85;;
33654;SDS011;19997;51.274;22.506;2023-03-23T03:57:01;23.40;;;8.88;;
33654;SDS011;19997;51.274;22.506;2023-03-23T03:59:48;17.90;;;10.10;;
33654;SDS011;19997;51.274;22.506;2023-03-23T04:02:34;19.88;;;9.30;;
33654;SDS011;19997;51.274;22.506;2023-03-23T04:05:01;19.27;;;8.10;;
33654;SDS011;19997;51.274;22.506;2023-03-23T04:07:31;15.47;;;9.07;;
33654;SDS011;19997;51.274;22.506;2023-03-23T04:09:59;17.65;;;9.25;;
33654;SDS011;19997;51.274;22.506;2023-03-23T04:12:26;17.75;;;8.57;;
33654;SDS011;19997;51.274;22.506;2023-03-23T04:14:56;20.02;;;8.35;;
33654;SDS011;19997;51.274;22.506;2023-03-23T04:17:33;16.20;;;8.93;;
33654;SDS011;19997;51.274;22.506;2023-03-23T04:20:01;19.02;;;8.98;;
33654;SDS011;19997;51.274;22.506;2023-03-23T04:22:32;15.30;;;8.25;;
33654;SDS011;19997;51.274;22.506;2023-03-23T04:25:02;19.40;;;8.98;;
33654;SDS011;19997;51.274;22.506;2023-03-23T04:27:33;19.27;;;9.52;;
33654;SDS011;19997;51.274;22.506;2023-03-23T04:30:02;16.48;;;8.57;;
33654;SDS011;19997;51.274;22.506;2023-03-23T04:32:39;16.98;;;8.77;;
33654;SDS011;19997;51.274;22.506;2023-03-23T04:35:09;16.58;;;8.55;;
33654;SDS011;19997;51.274;22.506;2023-03-23T04:37:42;16.52;;;8.85;;
33654;SDS011;19997;51.274;22.506;2023-03-23T04:40:15;14.73;;;8.27;;
33654;SDS011;19997;51.274;22.506;2023-03-23T04:42:55;16.85;;;8.38;;
33654;SDS011;19997;51.274;22.506;2023-03-23T04:45:47;19.30;;;9.73;;
33654;SDS011;19997;51.274;22.506;2023-03-23T04:48:21;18.30;;;8.88;;
33654;SDS011;19997;51.274;22.506;2023-03-23T04:50:58;16.23;;;7.95;;
33654;SDS011;19997;51.274;22.506;2023-03-23T04:53:28;20.70;;;8.50;;
33654;SDS011;19997;51.274;22.506;2023-03-23T04:55:57;17.73;;;9.05;;
33654;SDS011;19997;51.274;22.506;2023-03-23T04:58:27;18.45;;;11.65;;
33654;SDS011;19997;51.274;22.506;2023-03-23T05:01:19;18.55;;;8.77;;
33654;SDS011;19997;51.274;22.506;2023-03-23T05:04:12;16.00;;;8.25;;
33654;SDS011;19997;51.274;22.506;2023-03-23T05:06:45;19.17;;;8.50;;
33654;SDS011;19997;51.274;22.506;2023-03-23T05:09:18;14.82;;;7.70;;
33654;SDS011;19997;51.274;22.506;2023-03-23T05:11:48;16.05;;;8.32;;
33654;SDS011;19997;51.274;22.506;2023-03-23T05:14:15;15.13;;;9.15;;
33654;SDS011;19997;51.274;22.506;2023-03-23T05:16:48;16.25;;;7.93;;
33654;SDS011;19997;51.274;22.506;2023-03-23T05:19:18;13.90;;;7.45;;
33654;SDS011;19997;51.274;22.506;2023-03-23T05:21:45;16.00;;;7.97;;
33654;SDS011;19997;51.274;22.506;2023-03-23T05:24:12;15.82;;;7.95;;
33654;SDS011;19997;51.274;22.506;2023-03-23T05:26:40;16.05;;;8.05;;
33654;SDS011;19997;51.274;22.506;2023-03-23T05:29:17;13.90;;;6.90;;
33654;SDS011;19997;51.274;22.506;2023-03-23T05:31:52;12.75;;;7.38;;
33654;SDS011;19997;51.274;22.506;2023-03-23T05:34:21;14.60;;;8.32;;
33654;SDS011;19997;51.274;22.506;2023-03-23T05:36:55;12.65;;;6.53;;
33654;SDS011;19997;51.274;22.506;2023-03-23T05:39:48;12.77;;;7.20;;
33654;SDS011;19997;51.274;22.506;2023-03-23T05:42:37;14.25;;;7.82;;
33654;SDS011;19997;51.274;22.506;2023-03-23T05:45:13;15.43;;;7.90;;
33654;SDS011;19997;51.274;22.506;2023-03-23T05:47:41;16.63;;;7.67;;
33654;SDS011;19997;51.274;22.506;2023-03-23T05:50:13;13.77;;;6.90;;
33654;SDS011;19997;51.274;22.506;2023-03-23T05:52:41;14.98;;;7.30;;
33654;SDS011;19997;51.274;22.506;2023-03-23T05:55:10;22.73;;;7.43;;
33654;SDS011;19997;51.274;22.506;2023-03-23T05:57:40;19.27;;;6.78;;
33654;SDS011;19997;51.274;22.506;2023-03-23T06:00:24;15.82;;;6.43;;
33654;SDS011;19997;51.274;22.506;2023-03-23T06:03:02;17.00;;;7.30;;
33654;SDS011;19997;51.274;22.506;2023-03-23T06:05:49;11.05;;;6.20;;
33654;SDS011;19997;51.274;22.506;2023-03-23T06:08:19;13.18;;;6.50;;
33654;SDS011;19997;51.274;22.506;2023-03-23T06:10:46;10.45;;;6.43;;
33654;SDS011;19997;51.274;22.506;2023-03-23T06:13:13;10.63;;;6.63;;
33654;SDS011;19997;51.274;22.506;2023-03-23T06:15:48;12.15;;;6.97;;
33654;SDS011;19997;51.274;22.506;2023-03-23T06:18:31;15.77;;;8.52;;
33654;SDS011;19997;51.274;22.506;2023-03-23T06:21:25;13.38;;;8.07;;
33654;SDS011;19997;51.274;22.506;2023-03-23T06:23:54;22.13;;;8.85;;
33654;SDS011;19997;51.274;22.506;2023-03-23T06:26:28;15.30;;;9.55;;
33654;SDS011;19997;51.274;22.506;2023-03-23T06:29:00;14.80;;;8.80;;
33654;SDS011;19997;51.274;22.506;2023-03-23T06:31:31;19.15;;;7.22;;
33654;SDS011;19997;51.274;22.506;2023-03-23T06:34:01;13.23;;;6.90;;
33654;SDS011;19997;51.274;22.506;2023-03-23T06:37:00;15.25;;;6.75;;
33654;SDS011;19997;51.274;22.506;2023-03-23T06:39:35;21.65;;;10.00;;
33654;SDS011;19997;51.274;22.506;2023-03-23T06:44:48;25.83;;;10.63;;
33654;SDS011;19997;51.274;22.506;2023-03-23T06:47:17;14.18;;;8.00;;
33654;SDS011;19997;51.274;22.506;2023-03-23T06:49:46;15.95;;;9.35;;
33654;SDS011;19997;51.274;22.506;2023-03-23T06:52:23;12.10;;;7.65;;
33654;SDS011;19997;51.274;22.506;2023-03-23T06:54:50;15.27;;;8.10;;
33654;SDS011;19997;51.274;22.506;2023-03-23T06:57:19;16.08;;;8.40;;
33654;SDS011;19997;51.274;22.506;2023-03-23T06:59:48;22.65;;;10.60;;
33654;SDS011;19997;51.274;22.506;2023-03-23T07:02:17;33.33;;;12.77;;
33654;SDS011;19997;51.274;22.506;2023-03-23T07:04:48;13.55;;;7.15;;
33654;SDS011;19997;51.274;22.506;2023-03-23T07:07:19;11.98;;;6.75;;
33654;SDS011;19997;51.274;22.506;2023-03-23T07:09:52;10.48;;;6.80;;
33654;SDS011;19997;51.274;22.506;2023-03-23T07:12:22;12.02;;;6.18;;
33654;SDS011;19997;51.274;22.506;2023-03-23T07:14:50;12.77;;;7.28;;
33654;SDS011;19997;51.274;22.506;2023-03-23T07:17:19;17.63;;;8.30;;
33654;SDS011;19997;51.274;22.506;2023-03-23T07:19:59;13.63;;;6.95;;
33654;SDS011;19997;51.274;22.506;2023-03-23T07:22:28;11.88;;;7.20;;
33654;SDS011;19997;51.274;22.506;2023-03-23T07:25:04;15.65;;;7.70;;
33654;SDS011;19997;51.274;22.506;2023-03-23T07:27:41;16.17;;;7.03;;
33654;SDS011;19997;51.274;22.506;2023-03-23T07:30:11;13.50;;;6.07;;
33654;SDS011;19997;51.274;22.506;2023-03-23T07:32:41;12.13;;;7.10;;
33654;SDS011;19997;51.274;22.506;2023-03-23T07:35:08;12.25;;;7.90;;
33654;SDS011;19997;51.274;22.506;2023-03-23T07:37:43;15.23;;;8.82;;
33654;SDS011;19997;51.274;22.506;2023-03-23T07:40:11;17.73;;;8.10;;
33654;SDS011;19997;51.274;22.506;2023-03-23T07:42:43;16.35;;;8.02;;
33654;SDS011;19997;51.274;22.506;2023-03-23T07:45:19;40.90;;;18.08;;
33654;SDS011;19997;51.274;22.506;2023-03-23T07:47:48;15.15;;;8.40;;
33654;SDS011;19997;51.274;22.506;2023-03-23T07:50:15;12.38;;;7.80;;
33654;SDS011;19997;51.274;22.506;2023-03-23T07:52:46;13.43;;;6.95;;
33654;SDS011;19997;51.274;22.506;2023-03-23T07:55:16;11.77;;;6.50;;
33654;SDS011;19997;51.274;22.506;2023-03-23T08:00:33;14.75;;;8.57;;
33654;SDS011;19997;51.274;22.506;2023-03-23T08:03:05;13.77;;;7.50;;
33654;SDS011;19997;51.274;22.506;2023-03-23T08:05:41;14.82;;;7.30;;
33654;SDS011;19997;51.274;22.506;2023-03-23T08:08:14;13.50;;;7.07;;
33654;SDS011;19997;51.274;22.506;2023-03-23T08:11:00;9.73;;;6.15;;
33654;SDS011;19997;51.274;22.506;2023-03-23T08:13:46;12.00;;;6.47;;
33654;SDS011;19997;51.274;22.506;2023-03-23T08:16:13;13.88;;;7.25;;
33654;SDS011;19997;51.274;22.506;2023-03-23T08:19:07;19.75;;;7.03;;
33654;SDS011;19997;51.274;22.506;2023-03-23T08:21:45;14.55;;;9.85;;
33654;SDS011;19997;51.274;22.506;2023-03-23T08:24:18;19.40;;;10.65;;
33654;SDS011;19997;51.274;22.506;2023-03-23T08:26:45;22.20;;;10.30;;
33654;SDS011;19997;51.274;22.506;2023-03-23T08:29:43;19.83;;;11.32;;
33654;SDS011;19997;51.274;22.506;2023-03-23T08:32:19;18.95;;;10.40;;
33654;SDS011;19997;51.274;22.506;2023-03-23T08:34:48;28.30;;;9.82;;
33654;SDS011;19997;51.274;22.506;2023-03-23T08:37:36;15.85;;;7.82;;
33654;SDS011;19997;51.274;22.506;2023-03-23T08:40:22;12.25;;;7.65;;
33654;SDS011;19997;51.274;22.506;2023-03-23T08:42:59;11.90;;;7.55;;
33654;SDS011;19997;51.274;22.506;2023-03-23T08:45:35;14.18;;;7.70;;
33654;SDS011;19997;51.274;22.506;2023-03-23T08:48:02;13.13;;;7.03;;
33654;SDS011;19997;51.274;22.506;2023-03-23T08:50:44;14.73;;;7.43;;
33654;SDS011;19997;51.274;22.506;2023-03-23T08:53:28;15.35;;;7.65;;
33654;SDS011;19997;51.274;22.506;2023-03-23T08:56:22;16.45;;;7.65;;
33654;SDS011;19997;51.274;22.506;2023-03-23T08:59:21;13.60;;;7.47;;
33654;SDS011;19997;51.274;22.506;2023-03-23T09:02:01;27.67;;;12.38;;
33654;SDS011;19997;51.274;22.506;2023-03-23T09:04:40;28.20;;;12.23;;
33654;SDS011;19997;51.274;22.506;2023-03-23T09:07:27;16.08;;;8.45;;
33654;SDS011;19997;51.274;22.506;2023-03-23T09:09:56;13.40;;;7.60;;
33654;SDS011;19997;51.274;22.506;2023-03-23T09:12:23;14.25;;;7.65;;
33654;SDS011;19997;51.274;22.506;2023-03-23T09:14:50;12.38;;;6.72;;
33654;SDS011;19997;51.274;22.506;2023-03-23T09:17:17;12.85;;;7.70;;
33654;SDS011;19997;51.274;22.506;2023-03-23T09:19:44;16.00;;;7.18;;
33654;SDS011;19997;51.274;22.506;2023-03-23T09:22:11;14.00;;;8.07;;
33654;SDS011;19997;51.274;22.506;2023-03-23T09:24:40;23.70;;;12.43;;
33654;SDS011;19997;51.274;22.506;2023-03-23T09:27:07;30.52;;;14.35;;
33654;SDS011;19997;51.274;22.506;2023-03-23T09:29:34;31.08;;;15.00;;
33654;SDS011;19997;51.274;22.506;2023-03-23T09:32:02;25.42;;;14.65;;
33654;SDS011;19997;51.274;22.506;2023-03-23T09:34:29;18.42;;;9.65;;
33654;SDS011;19997;51.274;22.506;2023-03-23T09:37:00;15.10;;;8.63;;
33654;SDS011;19997;51.274;22.506;2023-03-23T09:39:29;20.30;;;10.60;;
33654;SDS011;19997;51.274;22.506;2023-03-23T09:45:06;17.70;;;9.60;;
33654;SDS011;19997;51.274;22.506;2023-03-23T09:47:43;14.13;;;8.27;;
33654;SDS011;19997;51.274;22.506;2023-03-23T09:50:23;22.67;;;8.73;;
33654;SDS011;19997;51.274;22.506;2023-03-23T09:52:58;14.40;;;7.53;;
33654;SDS011;19997;51.274;22.506;2023-03-23T09:55:27;16.25;;;8.20;;
33654;SDS011;19997;51.274;22.506;2023-03-23T09:57:58;17.35;;;8.30;;
33654;SDS011;19997;51.274;22.506;2023-03-23T10:00:29;13.07;;;7.35;;
33654;SDS011;19997;51.274;22.506;2023-03-23T10:03:00;14.13;;;7.72;;
33654;SDS011;19997;51.274;22.506;2023-03-23T10:05:42;14.57;;;8.30;;
33654;SDS011;19997;51.274;22.506;2023-03-23T10:08:13;17.38;;;8.05;;
33654;SDS011;19997;51.274;22.506;2023-03-23T10:10:47;15.27;;;7.80;;
33654;SDS011;19997;51.274;22.506;2023-03-23T10:13:22;16.52;;;9.52;;
33654;SDS011;19997;51.274;22.506;2023-03-23T10:15:57;21.33;;;9.20;;
33654;SDS011;19997;51.274;22.506;2023-03-23T10:18:29;27.92;;;12.98;;
33654;SDS011;19997;51.274;22.506;2023-03-23T10:21:17;30.00;;;15.07;;
33654;SDS011;19997;51.274;22.506;2023-03-23T10:23:51;31.95;;;14.13;;
33654;SDS011;19997;51.274;22.506;2023-03-23T10:26:24;29.75;;;13.30;;
33654;SDS011;19997;51.274;22.506;2023-03-23T10:29:08;22.38;;;11.80;;
33654;SDS011;19997;51.274;22.506;2023-03-23T10:31:41;27.10;;;12.77;;
33654;SDS011;19997;51.274;22.506;2023-03-23T10:34:13;22.13;;;12.60;;
33654;SDS011;19997;51.274;22.506;2023-03-23T10:36:51;21.52;;;11.55;;
33654;SDS011;19997;51.274;22.506;2023-03-23T10:39:28;23.67;;;11.50;;
33654;SDS011;19997;51.274;22.506;2023-03-23T10:42:00;30.48;;;13.07;;
33654;SDS011;19997;51.274;22.506;2023-03-23T10:44:33;24.85;;;12.38;;
33654;SDS011;19997;51.274;22.506;2023-03-23T10:47:02;30.05;;;13.75;;
33654;SDS011;19997;51.274;22.506;2023-03-23T10:49:32;24.73;;;12.02;;
33654;SDS011;19997;51.274;22.506;2023-03-23T10:52:06;20.38;;;10.60;;
33654;SDS011;19997;51.274;22.506;2023-03-23T10:54:46;18.70;;;11.45;;
33654;SDS011;19997;51.274;22.506;2023-03-23T10:57:21;17.42;;;9.13;;
33654;SDS011;19997;51.274;22.506;2023-03-23T10:59:57;15.77;;;9.30;;
33654;SDS011;19997;51.274;22.506;2023-03-23T11:02:26;14.77;;;9.13;;
33654;SDS011;19997;51.274;22.506;2023-03-23T11:04:59;53.15;;;19.48;;
33654;SDS011;19997;51.274;22.506;2023-03-23T11:07:29;25.50;;;11.70;;
33654;SDS011;19997;51.274;22.506;2023-03-23T11:10:05;18.58;;;11.05;;
33654;SDS011;19997;51.274;22.506;2023-03-23T11:12:43;15.70;;;8.32;;
33654;SDS011;19997;51.274;22.506;2023-03-23T11:15:20;18.15;;;9.82;;
33654;SDS011;19997;51.274;22.506;2023-03-23T11:18:01;22.23;;;10.68;;
33654;SDS011;19997;51.274;22.506;2023-03-23T11:20:32;27.35;;;12.40;;
33654;SDS011;19997;51.274;22.506;2023-03-23T11:23:07;28.23;;;11.40;;
33654;SDS011;19997;51.274;22.506;2023-03-23T11:25:50;30.27;;;12.68;;
33654;SDS011;19997;51.274;22.506;2023-03-23T11:28:28;27.05;;;10.90;;
33654;SDS011;19997;51.274;22.506;2023-03-23T11:31:00;21.23;;;10.88;;
33654;SDS011;19997;51.274;22.506;2023-03-23T11:33:30;28.00;;;10.30;;
33654;SDS011;19997;51.274;22.506;2023-03-23T11:36:02;26.67;;;10.23;;
33654;SDS011;19997;51.274;22.506;2023-03-23T11:38:41;24.48;;;10.63;;
33654;SDS011;19997;51.274;22.506;2023-03-23T11:41:10;21.58;;;10.63;;
33654;SDS011;19997;51.274;22.506;2023-03-23T11:43:39;34.60;;;16.52;;
33654;SDS011;19997;51.274;22.506;2023-03-23T11:46:14;25.63;;;10.30;;
33654;SDS011;19997;51.274;22.506;2023-03-23T11:48:50;25.02;;;9.32;;
33654;SDS011;19997;51.274;22.506;2023-03-23T11:51:24;21.60;;;9.02;;
33654;SDS011;19997;51.274;22.506;2023-03-23T11:53:58;25.30;;;9.80;;
33654;SDS011;19997;51.274;22.506;2023-03-23T11:56:29;26.52;;;11.68;;
33654;SDS011;19997;51.274;22.506;2023-03-23T11:59:01;34.20;;;13.25;;
33654;SDS011;19997;51.274;22.506;2023-03-23T12:01:41;29.97;;;12.70;;
33654;SDS011;19997;51.274;22.506;2023-03-23T12:07:30;17.67;;;8.82;;
33654;SDS011;19997;51.274;22.506;2023-03-23T12:10:08;21.05;;;8.43;;
33654;SDS011;19997;51.274;22.506;2023-03-23T12:12:50;14.23;;;7.63;;
33654;SDS011;19997;51.274;22.506;2023-03-23T12:15:25;13.43;;;7.00;;
33654;SDS011;19997;51.274;22.506;2023-03-23T12:18:01;10.35;;;5.97;;
33654;SDS011;19997;51.274;22.506;2023-03-23T12:20:39;19.05;;;8.90;;
33654;SDS011;19997;51.274;22.506;2023-03-23T12:23:18;10.85;;;6.78;;
33654;SDS011;19997;51.274;22.506;2023-03-23T12:26:02;10.98;;;6.72;;
33654;SDS011;19997;51.274;22.506;2023-03-23T12:31:47;20.83;;;6.97;;
33654;SDS011;19997;51.274;22.506;2023-03-23T12:34:26;11.18;;;6.35;;
33654;SDS011;19997;51.274;22.506;2023-03-23T12:37:06;11.23;;;6.13;;
33654;SDS011;19997;51.274;22.506;2023-03-23T12:39:46;9.32;;;5.70;;
33654;SDS011;19997;51.274;22.506;2023-03-23T12:42:21;10.23;;;5.53;;
33654;SDS011;19997;51.274;22.506;2023-03-23T12:44:54;13.02;;;6.43;;
33654;SDS011;19997;51.274;22.506;2023-03-23T12:51:17;9.43;;;5.00;;
33654;SDS011;19997;51.274;22.506;2023-03-23T12:53:53;8.00;;;5.53;;
33654;SDS011;19997;51.274;22.506;2023-03-23T12:56:26;9.50;;;5.75;;
33654;SDS011;19997;51.274;22.506;2023-03-23T12:58:59;10.77;;;5.32;;
33654;SDS011;19997;51.274;22.506;2023-03-23T13:01:32;9.48;;;5.55;;
33654;SDS011;19997;51.274;22.506;2023-03-23T13:04:04;10.60;;;5.57;;
33654;SDS011;19997;51.274;22.506;2023-03-23T13:06:35;17.58;;;5.80;;
33654;SDS011;19997;51.274;22.506;2023-03-23T13:09:10;11.18;;;4.72;;
33654;SDS011;19997;51.274;22.506;2023-03-23T13:11:42;15.38;;;5.80;;
33654;SDS011;19997;51.274;22.506;2023-03-23T13:14:23;9.47;;;5.30;;
33654;SDS011;19997;51.274;22.506;2023-03-23T13:16:59;8.25;;;4.60;;
33654;SDS011;19997;51.274;22.506;2023-03-23T13:19:34;12.88;;;5.25;;
33654;SDS011;19997;51.274;22.506;2023-03-23T13:22:15;8.73;;;5.60;;
33654;SDS011;19997;51.274;22.506;2023-03-23T13:24:49;8.48;;;4.88;;
33654;SDS011;19997;51.274;22.506;2023-03-23T13:27:22;10.25;;;4.50;;
33654;SDS011;19997;51.274;22.506;2023-03-23T13:29:53;17.48;;;8.02;;
33654;SDS011;19997;51.274;22.506;2023-03-23T13:32:20;14.15;;;6.15;;
33654;SDS011;19997;51.274;22.506;2023-03-23T13:34:49;9.25;;;4.85;;
33654;SDS011;19997;51.274;22.506;2023-03-23T13:37:23;10.63;;;5.03;;
33654;SDS011;19997;51.274;22.506;2023-03-23T13:39:53;12.43;;;5.32;;
33654;SDS011;19997;51.274;22.506;2023-03-23T13:42:24;9.10;;;4.95;;
33654;SDS011;19997;51.274;22.506;2023-03-23T13:44:56;11.63;;;5.32;;
33654;SDS011;19997;51.274;22.506;2023-03-23T13:47:37;7.60;;;4.65;;
33654;SDS011;19997;51.274;22.506;2023-03-23T13:50:10;8.38;;;4.47;;
33654;SDS011;19997;51.274;22.506;2023-03-23T13:52:49;10.20;;;4.90;;
33654;SDS011;19997;51.274;22.506;2023-03-23T13:58:10;9.43;;;4.93;;
33654;SDS011;19997;51.274;22.506;2023-03-23T14:00:45;8.02;;;5.00;;
33654;SDS011;19997;51.274;22.506;2023-03-23T14:03:16;8.18;;;4.47;;
33654;SDS011;19997;51.274;22.506;2023-03-23T14:05:45;10.25;;;5.07;;
33654;SDS011;19997;51.274;22.506;2023-03-23T14:08:23;8.95;;;5.28;;
33654;SDS011;19997;51.274;22.506;2023-03-23T14:11:10;9.48;;;4.55;;
33654;SDS011;19997;51.274;22.506;2023-03-23T14:13:43;6.20;;;4.40;;
33654;SDS011;19997;51.274;22.506;2023-03-23T14:16:14;11.40;;;5.70;;
33654;SDS011;19997;51.274;22.506;2023-03-23T14:18:48;9.27;;;4.55;;
33654;SDS011;19997;51.274;22.506;2023-03-23T14:21:25;14.88;;;5.05;;
33654;SDS011;19997;51.274;22.506;2023-03-23T14:24:04;8.52;;;5.47;;
33654;SDS011;19997;51.274;22.506;2023-03-23T14:26:36;11.45;;;5.20;;
33654;SDS011;19997;51.274;22.506;2023-03-23T14:29:04;10.90;;;5.53;;
33654;SDS011;19997;51.274;22.506;2023-03-23T14:31:32;11.10;;;5.25;;
33654;SDS011;19997;51.274;22.506;2023-03-23T14:34:03;11.02;;;5.60;;
33654;SDS011;19997;51.274;22.506;2023-03-23T14:36:39;10.25;;;6.30;;
33654;SDS011;19997;51.274;22.506;2023-03-23T14:39:12;14.02;;;5.15;;
33654;SDS011;19997;51.274;22.506;2023-03-23T14:41:43;14.35;;;5.50;;
33654;SDS011;19997;51.274;22.506;2023-03-23T14:44:12;13.00;;;5.93;;
33654;SDS011;19997;51.274;22.506;2023-03-23T14:46:42;13.07;;;7.30;;
33654;SDS011;19997;51.274;22.506;2023-03-23T14:49:11;15.35;;;6.75;;
33654;SDS011;19997;51.274;22.506;2023-03-23T14:51:48;21.13;;;7.97;;
33654;SDS011;19997;51.274;22.506;2023-03-23T14:54:22;19.02;;;6.53;;
33654;SDS011;19997;51.274;22.506;2023-03-23T14:56:51;14.13;;;7.18;;
33654;SDS011;19997;51.274;22.506;2023-03-23T14:59:18;21.48;;;7.50;;
33654;SDS011;19997;51.274;22.506;2023-03-23T15:01:46;13.60;;;6.47;;
33654;SDS011;19997;51.274;22.506;2023-03-23T15:04:16;8.82;;;5.57;;
33654;SDS011;19997;51.274;22.506;2023-03-23T15:06:46;16.30;;;6.95;;
33654;SDS011;19997;51.274;22.506;2023-03-23T15:09:18;13.88;;;5.07;;
33654;SDS011;19997;51.274;22.506;2023-03-23T15:11:52;13.70;;;5.47;;
33654;SDS011;19997;51.274;22.506;2023-03-23T15:14:22;11.68;;;5.97;;
33654;SDS011;19997;51.274;22.506;2023-03-23T15:19:21;13.07;;;6.20;;
33654;SDS011;19997;51.274;22.506;2023-03-23T15:21:51;17.48;;;6.43;;
33654;SDS011;19997;51.274;22.506;2023-03-23T15:24:21;18.38;;;6.78;;
33654;SDS011;19997;51.274;22.506;2023-03-23T15:27:02;12.55;;;6.43;;